Time;durP1;ratioP1;P1;durP2;ratioP2;P2;SDS_P1;SDS_P2;PMS_P1;PMS_P2;Temp;Humidity;BMP_temperature;BMP_pressure;BME280_temperature;BME280_humidity;BME280_pressure;Samples;Min_cycle;Max_cycle;Signal;HPM_P1;HPM_P2
2021/12/17 00:00:59;;;;;;;0.90;0.90;;;;;;;5.55;97.12;95929.56;5051304;28;20481;-53
2021/12/17 00:03:37;;;;;;;0.30;0.20;;;;;;;5.28;100.00;95924.84;5051639;28;20426;-53
2021/12/17 00:06:15;;;;;;;0.40;0.40;;;;;;;4.54;100.00;95923.25;5052091;28;20513;-53
2021/12/17 00:08:48;;;;;;;0.77;0.60;;;;;;;4.21;100.00;95935.84;5051914;28;20512;-53
2021/12/17 00:11:17;;;;;;;0.30;0.30;;;;;;;4.48;100.00;95914.41;5051853;28;20434;-53
2021/12/17 00:13:47;;;;;;;0.73;0.73;;;;;;;4.25;100.00;95923.91;5051009;28;20450;-53
2021/12/17 00:16:21;;;;;;;0.30;0.20;;;;;;;4.45;100.00;95909.56;5051000;28;20462;-53
2021/12/17 00:19:09;;;;;;;0.40;0.40;;;;;;;4.72;100.00;95932.97;5051682;28;20437;-53
2021/12/17 00:49:29;;;;;;;0.67;0.67;;;;;;;3.99;100.00;95932.78;5054981;28;20857;-53
2021/12/17 00:51:59;;;;;;;0.97;0.97;;;;;;;4.35;100.00;95929.47;5055383;28;20517;-53
2021/12/17 00:54:35;;;;;;;1.43;1.33;;;;;;;3.95;100.00;95920.31;5055282;28;20465;-53
2021/12/17 00:57:08;;;;;;;0.40;0.30;;;;;;;4.54;100.00;95923.25;5055304;28;20504;-53
2021/12/17 00:59:36;;;;;;;0.30;0.20;;;;;;;5.01;100.00;95919.91;5054987;28;20505;-53
2021/12/17 01:02:09;;;;;;;0.43;0.40;;;;;;;4.47;100.00;95828.00;5055393;28;20586;-53
2021/12/17 01:04:42;;;;;;;0.30;0.20;;;;;;;5.02;100.00;95866.34;5055062;28;20529;-53
2021/12/17 01:07:12;;;;;;;0.30;0.20;;;;;;;5.62;100.00;95929.44;5055011;28;20501;-53
2021/12/17 01:09:41;;;;;;;0.30;0.30;;;;;;;5.88;100.00;95921.22;5055069;28;20462;-53
2021/12/17 01:12:10;;;;;;;0.40;0.30;;;;;;;6.03;97.89;95918.16;5055423;28;20498;-53
2021/12/17 01:14:40;;;;;;;0.30;0.20;;;;;;;6.03;98.09;95918.97;5055004;28;20458;-53
2021/12/17 01:17:10;;;;;;;0.30;0.30;;;;;;;6.14;96.20;95915.56;5054807;28;20493;-54
2021/12/17 01:20:13;;;;;;;0.30;0.20;;;;;;;4.93;98.12;95893.94;5055041;28;20426;-53
2021/12/17 01:22:54;;;;;;;0.30;0.20;;;;;;;5.45;100.00;95920.59;5054505;28;20477;-53
2021/12/17 01:25:39;;;;;;;0.30;0.20;;;;;;;4.95;99.33;95891.91;5054869;28;21016;-52
2021/12/17 01:36:33;;;;;;;0.80;0.80;;;;;;;5.23;100.00;95930.78;5054572;28;20544;-52
2021/12/17 01:42:05;;;;;;;1.37;0.77;;;;;;;4.65;100.00;95937.47;5053786;28;20477;-52
2021/12/17 01:44:34;;;;;;;0.40;0.30;;;;;;;3.82;100.00;95882.66;5054018;28;20480;-52
2021/12/17 01:47:04;;;;;;;0.60;0.60;;;;;;;3.46;100.00;95829.31;5054139;28;20458;-52
2021/12/17 02:00:48;;;;;;;0.40;0.30;;;;;;;5.25;100.00;95917.41;5053135;28;20549;-52
2021/12/17 02:03:17;;;;;;;0.30;0.20;;;;;;;5.09;100.00;95889.91;5054437;28;20426;-52
2021/12/17 02:05:46;;;;;;;0.30;0.20;;;;;;;4.16;100.00;95712.72;5053897;28;20819;-52
2021/12/17 02:08:15;;;;;;;0.30;0.20;;;;;;;5.55;100.00;95898.00;5054000;28;20877;-52
2021/12/17 02:11:28;;;;;;;0.30;0.20;;;;;;;5.72;100.00;95891.06;5053580;28;20517;-52
2021/12/17 02:30:51;;;;;;;0.40;0.40;;;;;;;4.37;92.11;95659.78;5053369;28;20497;-52
2021/12/17 02:33:20;;;;;;;0.70;0.70;;;;;;;5.82;95.68;95884.47;5053338;28;20462;-53
2021/12/17 02:35:49;;;;;;;0.30;0.20;;;;;;;5.47;98.81;95889.63;5053689;28;20461;-53
2021/12/17 02:38:19;;;;;;;0.60;0.60;;;;;;;4.85;97.58;95869.81;5052954;28;20517;-52
2021/12/17 02:46:16;;;;;;;0.83;0.50;;;;;;;4.30;96.22;95693.19;5009119;28;20466;-52
2021/12/17 02:48:45;;;;;;;0.40;0.30;;;;;;;5.58;100.00;95842.34;5053021;28;20485;-53
2021/12/17 02:51:13;;;;;;;0.30;0.20;;;;;;;5.72;94.56;95862.16;5052539;28;20430;-53
2021/12/17 02:53:43;;;;;;;0.30;0.20;;;;;;;5.44;94.17;95869.06;5052536;28;20873;-53
2021/12/17 02:56:12;;;;;;;17.53;1.03;;;;;;;5.01;96.01;95846.34;5052734;28;20930;-53
2021/12/17 02:58:40;;;;;;;0.33;0.33;;;;;;;4.81;99.02;95856.28;5052495;28;21022;-53
2021/12/17 03:01:12;;;;;;;0.40;0.40;;;;;;;4.54;100.00;95875.19;5053244;28;20468;-52
2021/12/17 03:03:42;;;;;;;0.30;0.20;;;;;;;4.65;100.00;95875.28;5053172;28;20469;-52
2021/12/17 03:06:11;;;;;;;0.30;0.20;;;;;;;4.20;100.00;95842.44;5052303;28;20964;-52
2021/12/17 03:08:40;;;;;;;1.60;0.73;;;;;;;4.25;100.00;95869.59;5052477;28;20462;-52
2021/12/17 03:11:10;;;;;;;0.30;0.30;;;;;;;4.40;100.00;95871.91;5052776;28;20423;-53
2021/12/17 03:13:39;;;;;;;0.30;0.20;;;;;;;4.70;100.00;95875.44;5052249;28;20430;-53
2021/12/17 03:16:12;;;;;;;0.30;0.20;;;;;;;4.52;100.00;95867.53;5052680;28;20957;-53
2021/12/17 03:24:05;;;;;;;0.40;0.33;;;;;;;3.49;100.00;95855.88;5018802;28;20464;-53
2021/12/17 03:26:35;;;;;;;0.30;0.20;;;;;;;3.64;100.00;95861.63;5052849;28;20880;-53
2021/12/17 03:29:06;;;;;;;0.70;0.70;;;;;;;3.55;100.00;95854.25;5052507;28;20462;-52
2021/12/17 03:31:36;;;;;;;0.50;0.50;;;;;;;3.57;100.00;95778.81;5052565;28;20488;-53
2021/12/17 03:36:53;;;;;;;0.30;0.20;;;;;;;4.06;100.00;95851.41;5049977;28;20519;-52
2021/12/17 03:39:23;;;;;;;0.57;0.57;;;;;;;3.15;100.00;95832.72;5052232;28;20422;-53
2021/12/17 03:41:55;;;;;;;2.27;0.40;;;;;;;3.91;100.00;95869.31;5051956;28;21107;-53
2021/12/17 03:44:25;;;;;;;0.87;0.60;;;;;;;3.83;100.00;95873.00;5051575;28;20484;-53
2021/12/17 03:46:53;;;;;;;0.57;0.57;;;;;;;3.96;100.00;95836.19;5052508;28;20454;-53
2021/12/17 03:49:23;;;;;;;0.87;0.87;;;;;;;4.74;100.00;95887.09;5052150;28;20884;-53
2021/12/17 03:52:04;;;;;;;0.30;0.20;;;;;;;5.01;100.00;95890.19;5051511;28;20434;-53
2021/12/17 03:54:33;;;;;;;0.40;0.40;;;;;;;4.51;100.00;95850.16;5051172;28;20432;-52
2021/12/17 03:57:05;;;;;;;0.50;0.50;;;;;;;5.06;100.00;95896.41;5051105;28;20524;-53
2021/12/17 03:59:35;;;;;;;0.50;0.40;;;;;;;4.87;100.00;95899.25;5051822;28;20473;-53
2021/12/17 04:02:04;;;;;;;0.30;0.20;;;;;;;4.42;100.00;95903.97;5051948;28;20624;-52
2021/12/17 04:04:33;;;;;;;0.60;0.53;;;;;;;3.82;100.00;95905.47;5052174;28;20846;-53
2021/12/17 04:07:01;;;;;;;0.60;0.40;;;;;;;3.65;100.00;95884.22;5051646;28;20430;-53
2021/12/17 04:09:31;;;;;;;0.43;0.43;;;;;;;3.99;100.00;95892.66;5051318;28;20473;-53
2021/12/17 04:12:01;;;;;;;2.47;0.50;;;;;;;4.55;100.00;95898.59;5052009;28;20514;-53
2021/12/17 04:14:40;;;;;;;0.50;0.50;;;;;;;4.85;100.00;95886.38;5051323;28;20755;-53
2021/12/17 04:17:10;;;;;;;0.40;0.40;;;;;;;5.28;100.00;95877.56;5051805;28;20828;-53
2021/12/17 04:19:39;;;;;;;1.80;1.70;;;;;;;5.43;100.00;95880.59;5051369;28;20422;-53
2021/12/17 04:22:08;;;;;;;0.30;0.30;;;;;;;4.93;98.83;95798.59;5051358;28;20966;-52
2021/12/17 04:24:36;;;;;;;0.40;0.30;;;;;;;5.44;100.00;95875.09;5051210;28;20981;-53
2021/12/17 04:27:06;;;;;;;0.70;0.70;;;;;;;5.70;97.42;95879.19;5051914;28;20513;-53
2021/12/17 04:29:41;;;;;;;0.30;0.20;;;;;;;5.91;93.13;95883.97;5051752;28;20790;-53
2021/12/17 04:32:10;;;;;;;1.43;0.97;;;;;;;6.00;92.25;95887.84;5051543;28;20468;-53
2021/12/17 04:34:38;;;;;;;0.50;0.50;;;;;;;5.33;93.56;95802.28;5051111;28;20466;-53
2021/12/17 04:37:07;;;;;;;0.30;0.20;;;;;;;5.69;92.77;95867.84;5051412;28;20539;-53
2021/12/17 04:39:36;;;;;;;0.30;0.20;;;;;;;4.81;93.72;95845.78;5051334;28;20453;-53
2021/12/17 04:42:11;;;;;;;0.30;0.30;;;;;;;5.22;93.58;95855.59;5051451;28;20458;-53
2021/12/17 04:44:48;;;;;;;1.87;1.83;;;;;;;5.64;91.98;95883.50;5051477;28;20512;-53
2021/12/17 04:58:27;;;;;;;1.50;1.50;;;;;;;4.47;100.00;95802.56;5051283;28;20469;-53
2021/12/17 05:01:08;;;;;;;0.53;0.53;;;;;;;5.36;100.00;95887.75;5050944;28;20476;-52
2021/12/17 05:03:37;;;;;;;0.60;0.60;;;;;;;5.42;100.00;95884.22;5051153;28;20433;-53
2021/12/17 05:06:05;;;;;;;0.40;0.30;;;;;;;5.14;100.00;95854.06;5050945;28;20473;-53
2021/12/17 05:08:34;;;;;;;1.40;0.80;;;;;;;5.56;100.00;95881.22;5050939;28;20442;-53
2021/12/17 05:19:26;;;;;;;2.23;1.13;;;;;;;4.59;100.00;95863.00;5051483;28;20517;-52
2021/12/17 05:21:56;;;;;;;0.77;0.77;;;;;;;4.44;100.00;95871.25;5051337;28;20495;-53
2021/12/17 05:24:24;;;;;;;0.40;0.40;;;;;;;4.86;100.00;95874.81;5051379;28;20438;-54
2021/12/17 05:26:53;;;;;;;0.30;0.30;;;;;;;4.66;100.00;95876.88;5052168;28;20430;-53
2021/12/17 05:29:22;;;;;;;0.60;0.60;;;;;;;4.57;100.00;95872.94;5051034;28;20430;-52
2021/12/17 05:31:52;;;;;;;0.83;0.83;;;;;;;4.44;100.00;95873.06;5054208;28;20434;-53
2021/12/17 05:34:20;;;;;;;0.40;0.40;;;;;;;4.33;100.00;95871.16;5054893;28;20525;-52
2021/12/17 05:36:49;;;;;;;0.60;0.60;;;;;;;4.05;100.00;95881.31;5054115;28;20434;-53
2021/12/17 05:39:18;;;;;;;0.47;0.47;;;;;;;3.90;100.00;95881.59;5054541;28;20909;-52
2021/12/17 05:41:46;;;;;;;0.43;0.40;;;;;;;2.33;100.00;95629.47;5055197;28;20457;-53
2021/12/17 05:44:17;;;;;;;2.27;1.80;;;;;;;4.11;100.00;95872.56;5054626;28;20466;-52
2021/12/17 05:46:50;;;;;;;1.20;1.20;;;;;;;3.18;100.00;95738.84;5054173;28;20473;-53
2021/12/17 05:49:22;;;;;;;0.70;0.70;;;;;;;4.24;100.00;95864.56;5054713;28;20517;-53
2021/12/17 05:51:51;;;;;;;1.00;0.67;;;;;;;4.51;100.00;95863.28;5054215;28;20505;-54
2021/12/17 05:54:21;;;;;;;0.93;0.93;;;;;;;5.13;100.00;95865.59;5054667;28;20434;-54
2021/12/17 05:56:49;;;;;;;0.50;0.50;;;;;;;5.31;100.00;95856.09;5054538;28;20968;-53
2021/12/17 05:59:17;;;;;;;0.30;0.30;;;;;;;4.95;100.00;95836.75;5053788;28;20521;-53
2021/12/17 06:01:46;;;;;;;0.50;0.50;;;;;;;5.05;100.00;95830.97;5054089;28;20513;-53
2021/12/17 06:04:14;;;;;;;3.03;0.40;;;;;;;5.08;100.00;95807.66;5053790;28;20521;-53
2021/12/17 06:06:47;;;;;;;5.93;2.20;;;;;;;5.00;100.00;95841.31;5054164;28;20444;-53
2021/12/17 06:09:15;;;;;;;0.30;0.20;;;;;;;5.29;100.00;95858.16;5053999;28;20518;-53
2021/12/17 06:11:44;;;;;;;0.40;0.40;;;;;;;5.14;100.00;95851.44;5053906;28;20484;-53
2021/12/17 06:14:12;;;;;;;1.63;1.53;;;;;;;5.03;100.00;95843.53;5054105;28;20462;-53
2021/12/17 06:16:41;;;;;;;1.70;1.70;;;;;;;4.95;100.00;95856.94;5053777;28;20462;-53
2021/12/17 06:19:09;;;;;;;0.43;0.43;;;;;;;4.87;100.00;95823.91;5053588;28;20535;-53
2021/12/17 06:21:38;;;;;;;3.37;1.03;;;;;;;4.69;100.00;95849.38;5053633;28;20454;-53
2021/12/17 06:24:08;;;;;;;0.80;0.80;;;;;;;4.50;100.00;95832.84;5053318;28;20513;-53
2021/12/17 06:26:36;;;;;;;2.73;0.87;;;;;;;4.16;100.00;95836.81;5053540;28;20624;-52
2021/12/17 06:29:05;;;;;;;0.40;0.40;;;;;;;4.10;100.00;95839.50;5053576;28;20419;-53
2021/12/17 06:31:34;;;;;;;0.40;0.40;;;;;;;3.91;100.00;95843.06;5053547;28;20449;-53
2021/12/17 06:34:02;;;;;;;1.80;1.80;;;;;;;3.37;100.00;95841.06;5053754;28;20422;-54
2021/12/17 06:36:30;;;;;;;0.97;0.97;;;;;;;3.82;100.00;95835.47;5052897;28;20942;-53
2021/12/17 06:38:59;;;;;;;0.93;0.90;;;;;;;3.95;100.00;95810.19;5053222;28;20553;-54
2021/12/17 06:41:29;;;;;;;0.50;0.50;;;;;;;4.36;100.00;95852.34;5052485;28;20491;-53
2021/12/17 06:43:59;;;;;;;0.30;0.30;;;;;;;4.57;100.00;95786.31;5053017;28;20500;-53
2021/12/17 06:46:34;;;;;;;0.30;0.20;;;;;;;5.07;100.00;95840.22;5053700;28;20526;-53
2021/12/17 06:49:19;;;;;;;1.17;1.17;;;;;;;5.14;100.00;95838.31;5052896;28;20513;-52
2021/12/17 06:54:43;;;;;;;1.70;1.60;;;;;;;4.73;100.00;95801.44;5052453;28;20438;-54
2021/12/17 07:00:43;;;;;;;1.43;1.43;;;;;;;5.07;100.00;95832.34;5150471;27;20543;-53
2021/12/17 07:06:08;;;;;;;1.70;1.60;;;;;;;4.36;100.00;95731.63;5150766;27;20944;-53
2021/12/17 07:11:49;;;;;;;1.10;1.10;;;;;;;5.97;100.00;95835.69;5150477;27;20457;-54
2021/12/17 07:22:50;;;;;;;0.90;0.90;;;;;;;6.54;90.01;95838.53;5148024;27;20466;-52
2021/12/17 07:28:27;;;;;;;0.30;0.30;;;;;;;6.55;86.98;95843.59;5115320;27;20522;-53
2021/12/17 07:33:45;;;;;;;5.40;2.00;;;;;;;5.72;91.53;95853.44;5150221;27;20444;-52
2021/12/17 07:36:15;;;;;;;1.47;1.47;;;;;;;5.30;93.54;95791.41;5149615;27;20426;-52
2021/12/17 07:38:48;;;;;;;0.97;0.97;;;;;;;5.51;92.54;95856.63;5149904;27;20512;-52
2021/12/17 07:41:17;;;;;;;3.33;2.57;;;;;;;5.44;95.16;95845.41;5149973;27;20491;-52
2021/12/17 07:43:53;;;;;;;5.03;2.87;;;;;;;6.03;92.16;95876.88;5150266;27;20884;-52
2021/12/17 07:46:23;;;;;;;5.73;5.20;;;;;;;5.99;88.65;95862.59;5149941;27;20450;-52
2021/12/17 07:48:52;;;;;;;1.73;1.63;;;;;;;6.05;88.56;95863.47;5149705;27;20498;-52
2021/12/17 07:51:24;;;;;;;0.40;0.40;;;;;;;6.03;86.58;95870.81;5149074;27;20998;-52
2021/12/17 07:53:54;;;;;;;2.40;1.07;;;;;;;6.29;86.30;95849.31;5149021;27;20828;-52
2021/12/17 07:56:25;;;;;;;0.70;0.60;;;;;;;6.38;84.16;95864.53;5149827;27;20593;-52
2021/12/17 07:58:53;;;;;;;0.43;0.43;;;;;;;6.34;86.22;95852.88;5149275;27;20542;-52
2021/12/17 08:01:22;;;;;;;0.60;0.60;;;;;;;4.70;86.20;95672.44;5148932;27;20434;-52
2021/12/17 08:03:52;;;;;;;0.33;0.30;;;;;;;6.15;87.24;95859.25;5149729;27;20493;-52
2021/12/17 08:06:21;;;;;;;2.53;2.33;;;;;;;5.37;87.29;95755.31;5148131;27;20430;-52
2021/12/17 08:08:49;;;;;;;1.40;1.40;;;;;;;5.94;84.24;95778.28;5149065;27;20422;-52
2021/12/17 08:11:18;;;;;;;2.00;1.87;;;;;;;6.54;81.15;95836.72;5137945;27;20427;-52
2021/12/17 08:13:47;;;;;;;0.77;0.77;;;;;;;6.13;80.97;95771.03;5135622;27;20501;-52
2021/12/17 08:16:29;;;;;;;0.40;0.37;;;;;;;6.57;79.02;95819.66;5134454;27;20469;-53
2021/12/17 08:24:53;;;;;;;0.80;0.80;;;;;;;7.24;74.74;95810.97;5135151;27;20938;-52
2021/12/17 08:27:28;;;;;;;0.30;0.30;;;;;;;7.53;73.71;95806.47;5134970;27;20520;-53
2021/12/17 08:30:19;;;;;;;0.50;0.50;;;;;;;7.62;70.26;95824.31;5134849;27;20498;-54
2021/12/17 08:32:47;;;;;;;0.70;0.70;;;;;;;7.78;70.80;95827.19;5135232;27;20498;-53
2021/12/17 08:35:17;;;;;;;0.60;0.60;;;;;;;7.42;71.00;95821.31;5133658;27;20446;-53
2021/12/17 08:37:46;;;;;;;5.40;0.80;;;;;;;7.19;71.92;95816.16;5133103;27;21105;-53
2021/12/17 08:40:15;;;;;;;0.83;0.40;;;;;;;7.18;70.68;95809.28;5132758;27;21081;-53
2021/12/17 08:42:44;;;;;;;1.50;1.40;;;;;;;6.84;91.59;95795.19;5132822;27;20441;-53
2021/12/17 08:45:13;;;;;;;0.60;0.60;;;;;;;6.30;100.00;95809.59;5133211;27;20438;-53
2021/12/17 08:47:43;;;;;;;1.53;1.43;;;;;;;5.92;100.00;95811.88;5134030;27;20522;-52
2021/12/17 08:50:12;;;;;;;0.30;0.30;;;;;;;6.40;100.00;95804.56;5133762;27;20427;-53
2021/12/17 08:52:42;;;;;;;2.13;2.03;;;;;;;5.58;100.00;95779.25;5133842;27;20506;-54
2021/12/17 08:55:11;;;;;;;1.90;1.80;;;;;;;5.25;100.00;95804.41;5134103;27;20462;-53
2021/12/17 08:57:40;;;;;;;0.70;0.70;;;;;;;5.36;100.00;95803.66;5134652;27;20505;-53
2021/12/17 09:00:12;;;;;;;0.40;0.40;;;;;;;5.78;100.00;95786.81;5134181;27;20526;-53
2021/12/17 09:02:41;;;;;;;1.57;1.40;;;;;;;5.68;100.00;95789.19;5134465;27;20426;-53
2021/12/17 09:05:11;;;;;;;0.60;0.60;;;;;;;5.89;100.00;95791.31;5134574;27;20445;-53
2021/12/17 09:07:39;;;;;;;0.40;0.40;;;;;;;5.90;100.00;95786.84;5134269;27;20454;-53
2021/12/17 09:10:11;;;;;;;1.73;1.60;;;;;;;6.27;100.00;95775.84;5134761;27;20485;-53
2021/12/17 09:12:41;;;;;;;1.53;1.53;;;;;;;5.68;100.00;95757.63;5134381;27;20521;-53
2021/12/17 09:15:10;;;;;;;0.97;0.97;;;;;;;6.03;100.00;95766.38;5133726;27;20434;-54
2021/12/17 09:17:39;;;;;;;1.87;1.77;;;;;;;6.14;100.00;95768.19;5134308;27;20509;-53
2021/12/17 09:20:09;;;;;;;1.03;1.03;;;;;;;6.95;99.05;95754.03;5134067;27;20529;-53
2021/12/17 09:22:37;;;;;;;0.73;0.57;;;;;;;7.98;91.53;95750.97;5133593;27;20450;-53
2021/12/17 09:25:07;;;;;;;1.00;1.00;;;;;;;8.57;79.78;95752.09;5134079;27;20487;-52
2021/12/17 09:27:37;;;;;;;2.97;2.87;;;;;;;9.13;76.67;95753.53;5134429;27;20584;-52
2021/12/17 09:30:08;;;;;;;0.50;0.50;;;;;;;10.33;68.00;95735.16;5134482;27;20495;-52
2021/12/17 09:32:38;;;;;;;7.70;2.27;;;;;;;11.11;59.51;95723.53;5134077;27;20430;-51
2021/12/17 09:35:07;;;;;;;5.83;1.80;;;;;;;11.91;56.97;95709.53;5133934;27;20438;-52
2021/12/17 09:37:36;;;;;;;1.83;1.73;;;;;;;12.27;53.65;95712.91;5133964;27;20419;-52
2021/12/17 09:40:08;;;;;;;1.93;1.83;;;;;;;12.12;54.12;95698.88;5133869;27;20462;-53
2021/12/17 09:42:39;;;;;;;1.73;1.63;;;;;;;11.01;56.93;95696.97;5133952;27;20525;-52
2021/12/17 09:45:10;;;;;;;1.20;1.20;;;;;;;10.75;58.07;95692.69;5134057;27;20475;-52
2021/12/17 09:47:38;;;;;;;1.47;1.37;;;;;;;10.43;60.43;95686.72;5134158;27;20457;-52
2021/12/17 09:50:08;;;;;;;4.13;1.10;;;;;;;11.77;57.32;95678.47;5133978;27;20487;-54
2021/12/17 09:52:37;;;;;;;1.83;1.73;;;;;;;12.28;53.33;95665.88;5133717;27;20867;-55
2021/12/17 09:55:07;;;;;;;4.00;1.87;;;;;;;13.14;51.67;95682.25;5134000;27;20422;-55
2021/12/17 09:57:37;;;;;;;1.90;1.80;;;;;;;13.42;49.46;95654.91;5133901;27;20454;-56
2021/12/17 10:00:09;;;;;;;1.00;1.00;;;;;;;12.87;51.51;95668.56;5133291;27;20535;-56
2021/12/17 10:02:37;;;;;;;1.27;1.23;;;;;;;11.77;50.63;95620.03;5133507;27;20426;-56
2021/12/17 10:05:06;;;;;;;1.67;1.57;;;;;;;12.31;50.64;95671.44;5133809;27;20876;-56
2021/12/17 10:07:36;;;;;;;0.73;0.73;;;;;;;12.77;49.77;95648.91;5133330;27;20448;-56
2021/12/17 10:10:07;;;;;;;1.30;0.83;;;;;;;13.68;47.76;95647.50;5133692;27;20509;-56
2021/12/17 10:12:38;;;;;;;1.10;0.70;;;;;;;14.56;45.38;95631.91;5133382;27;20525;-56
2021/12/17 10:15:09;;;;;;;2.00;1.80;;;;;;;15.26;43.52;95630.13;5133343;27;20466;-55
2021/12/17 10:17:51;;;;;;;1.30;1.10;;;;;;;14.93;43.57;95626.59;5133469;27;20461;-54
2021/12/17 10:20:21;;;;;;;5.60;1.97;;;;;;;14.92;42.41;95611.69;5131874;27;20569;-52
2021/12/17 10:22:57;;;;;;;3.20;1.60;;;;;;;13.68;44.25;95562.25;5132044;27;20451;-53
2021/12/17 10:25:26;;;;;;;2.67;2.37;;;;;;;12.90;46.38;95585.53;5131438;27;20966;-53
2021/12/17 10:27:59;;;;;;;1.90;1.80;;;;;;;13.30;46.24;95599.38;5131979;27;20450;-54
2021/12/17 10:30:29;;;;;;;0.80;0.80;;;;;;;14.15;45.07;95625.44;5132061;27;20432;-55
2021/12/17 10:32:59;;;;;;;2.60;0.90;;;;;;;14.13;44.91;95616.94;5132712;27;20899;-56
2021/12/17 10:35:30;;;;;;;0.90;0.50;;;;;;;14.10;45.24;95598.84;5133279;27;20811;-55
2021/12/17 10:38:02;;;;;;;0.70;0.67;;;;;;;14.36;44.27;95605.50;5132729;27;20982;-56
2021/12/17 10:40:34;;;;;;;0.83;0.80;;;;;;;13.55;45.02;95600.22;5132141;27;21013;-55
2021/12/17 10:43:15;;;;;;;2.93;0.50;;;;;;;13.25;45.51;95577.31;5133747;27;20486;-55
2021/12/17 10:45:59;;;;;;;0.40;0.30;;;;;;;13.04;46.41;95549.22;5132746;27;20430;-55
2021/12/17 10:48:32;;;;;;;1.00;1.00;;;;;;;13.15;47.79;95590.69;5133131;27;20506;-55
2021/12/17 10:51:16;;;;;;;2.00;1.90;;;;;;;12.00;49.24;95584.94;5132776;27;20888;-55
2021/12/17 10:53:53;;;;;;;0.97;0.97;;;;;;;11.42;50.63;95584.50;5132754;27;20520;-55
2021/12/17 10:56:24;;;;;;;0.80;0.80;;;;;;;12.13;50.32;95573.72;5132745;27;20419;-55
2021/12/17 10:58:56;;;;;;;1.43;1.40;;;;;;;11.26;50.99;95576.81;5132615;28;20507;-55
2021/12/17 11:01:37;;;;;;;0.50;0.30;;;;;;;11.65;51.72;95561.91;5132643;27;20555;-55
2021/12/17 11:04:16;;;;;;;0.60;0.60;;;;;;;11.24;52.36;95508.09;5132452;28;20423;-54
2021/12/17 11:06:50;;;;;;;1.57;0.93;;;;;;;11.64;52.54;95549.69;5132845;27;20518;-54
2021/12/17 11:09:47;;;;;;;2.00;0.50;;;;;;;12.26;50.85;95543.09;5132717;28;20480;-54
2021/12/17 11:12:29;;;;;;;1.47;1.37;;;;;;;12.47;49.00;95504.72;5115014;28;20499;-54
2021/12/17 11:15:11;;;;;;;1.87;1.40;;;;;;;13.48;46.75;95531.31;5132778;27;20598;-55
2021/12/17 11:17:41;;;;;;;4.63;2.40;;;;;;;14.08;44.64;95489.84;5132317;28;20453;-56
2021/12/17 11:20:14;;;;;;;0.60;0.50;;;;;;;15.86;41.43;95532.91;5132485;28;20505;-58
2021/12/17 11:22:44;;;;;;;2.60;1.33;;;;;;;17.02;39.35;95521.63;5132487;27;20801;-56
2021/12/17 11:25:14;;;;;;;3.57;1.30;;;;;;;16.93;40.19;95512.72;5132606;27;20426;-56
2021/12/17 11:27:42;;;;;;;1.17;1.17;;;;;;;17.31;37.45;95516.63;5132559;28;20491;-55
2021/12/17 11:30:16;;;;;;;0.70;0.70;;;;;;;18.23;35.60;95505.84;5132375;28;20538;-53
2021/12/17 11:32:46;;;;;;;0.90;0.90;;;;;;;18.96;33.72;95506.88;5132461;28;20516;-53
2021/12/17 11:35:18;;;;;;;0.80;0.80;;;;;;;18.10;35.14;95387.94;5132039;28;20430;-52
2021/12/17 11:37:48;;;;;;;3.10;0.63;;;;;;;17.77;35.40;95391.03;5132319;27;20510;-52
2021/12/17 11:40:22;;;;;;;3.20;1.40;;;;;;;18.51;34.02;95460.75;5132041;28;20933;-52
2021/12/17 11:43:10;;;;;;;1.30;0.90;;;;;;;18.07;35.67;95498.53;5132205;28;20478;-52
2021/12/17 11:45:39;;;;;;;1.13;1.13;;;;;;;19.58;32.37;95493.84;5133220;27;20791;-52
2021/12/17 11:48:18;;;;;;;1.27;1.20;;;;;;;19.73;32.77;95487.94;5136027;27;20418;-51
2021/12/17 11:51:08;;;;;;;0.50;0.40;;;;;;;18.64;33.15;95480.50;5135367;27;20941;-51
2021/12/17 11:53:54;;;;;;;0.70;0.53;;;;;;;17.45;34.51;95471.00;5135874;27;20462;-51
2021/12/17 11:56:44;;;;;;;0.83;0.57;;;;;;;17.42;35.17;95474.28;5136131;27;20434;-52
2021/12/17 11:59:32;;;;;;;1.10;1.10;;;;;;;18.05;33.90;95453.25;5135559;27;20481;-52
2021/12/17 12:02:05;;;;;;;0.50;0.40;;;;;;;18.65;34.56;95450.63;5135627;27;20890;-52
2021/12/17 12:04:55;;;;;;;0.50;0.40;;;;;;;18.35;34.84;95438.94;5135243;27;20778;-52
2021/12/17 12:07:36;;;;;;;1.23;1.13;;;;;;;17.91;33.82;95425.75;5135564;27;20473;-52
2021/12/17 12:10:25;;;;;;;0.83;0.83;;;;;;;17.99;33.25;95359.81;5135483;27;20784;-52
2021/12/17 12:12:58;;;;;;;0.80;0.80;;;;;;;18.53;34.19;95398.69;5132029;27;21001;-52
2021/12/17 12:15:40;;;;;;;0.97;0.97;;;;;;;19.14;32.95;95405.53;5135485;27;20434;-52
2021/12/17 12:18:18;;;;;;;1.10;0.83;;;;;;;19.61;31.53;95402.53;5135084;27;20941;-51
2021/12/17 12:20:57;;;;;;;1.40;1.13;;;;;;;18.36;33.72;95407.53;5135475;27;20430;-52
2021/12/17 12:23:41;;;;;;;0.70;0.70;;;;;;;20.22;31.02;95414.53;5135888;27;20933;-52
2021/12/17 12:26:18;;;;;;;1.50;1.30;;;;;;;20.16;30.63;95412.38;5135405;27;20965;-52
2021/12/17 12:29:06;;;;;;;0.80;0.60;;;;;;;18.34;32.62;95359.50;5135388;27;20450;-50
2021/12/17 12:31:56;;;;;;;0.90;0.60;;;;;;;18.81;32.55;95399.94;5135338;27;20414;-51
2021/12/17 12:34:38;;;;;;;3.77;1.80;;;;;;;18.62;33.16;95392.19;5134793;27;20430;-52
2021/12/17 12:37:34;;;;;;;8.63;0.60;;;;;;;18.74;33.53;95396.94;5135097;27;20426;-52
2021/12/17 12:40:21;;;;;;;1.23;1.20;;;;;;;17.22;34.86;95394.44;5086843;27;20454;-52
2021/12/17 12:42:54;;;;;;;0.80;0.80;;;;;;;15.98;36.69;95401.44;5134671;27;20560;-53
2021/12/17 12:45:23;;;;;;;4.93;0.50;;;;;;;16.08;37.05;95395.06;5134931;27;20554;-55
2021/12/17 12:48:00;;;;;;;2.80;0.60;;;;;;;15.83;38.59;95407.13;5134677;27;20434;-53
2021/12/17 12:50:33;;;;;;;2.23;0.90;;;;;;;15.81;38.42;95410.06;5135129;27;20509;-53
2021/12/17 12:53:05;;;;;;;1.40;1.37;;;;;;;14.61;39.79;95400.56;5135193;27;20569;-54
2021/12/17 12:55:36;;;;;;;1.10;0.90;;;;;;;14.82;40.26;95405.56;5134719;27;20427;-54
2021/12/17 12:58:09;;;;;;;0.63;0.63;;;;;;;13.60;42.11;95403.88;5134306;27;20470;-55
2021/12/17 13:00:44;;;;;;;2.00;1.90;;;;;;;12.35;44.99;95408.56;5134399;27;20458;-55
2021/12/17 13:03:14;;;;;;;1.23;1.13;;;;;;;12.06;46.37;95401.34;5134403;27;20478;-55
2021/12/17 13:05:47;;;;;;;0.73;0.73;;;;;;;12.53;46.40;95398.06;5134602;27;20429;-55
2021/12/17 13:08:17;;;;;;;1.53;1.43;;;;;;;12.77;45.92;95402.63;5134525;27;20937;-55
2021/12/17 13:10:50;;;;;;;0.50;0.30;;;;;;;13.17;45.06;95378.31;5134552;27;20431;-55
2021/12/17 13:13:29;;;;;;;1.03;1.03;;;;;;;12.87;44.62;95328.84;5134428;27;20948;-54
2021/12/17 13:16:08;;;;;;;0.40;0.30;;;;;;;13.50;44.76;95401.34;5134407;27;20427;-54
2021/12/17 13:24:23;;;;;;;0.50;0.30;;;;;;;13.81;42.94;95388.44;5122540;27;20465;-54
2021/12/17 13:26:54;;;;;;;1.07;1.07;;;;;;;13.25;44.13;95343.88;5134580;27;20441;-55
2021/12/17 13:29:24;;;;;;;2.87;2.70;;;;;;;13.61;43.95;95397.47;5132728;27;20427;-54
2021/12/17 13:31:55;;;;;;;1.37;0.87;;;;;;;12.97;44.44;95298.69;5134017;27;20964;-54
2021/12/17 13:34:31;;;;;;;1.37;1.30;;;;;;;12.62;45.58;95359.13;5133969;27;20521;-54
2021/12/17 13:37:07;;;;;;;2.90;2.70;;;;;;;11.55;48.62;95333.66;5134046;27;20509;-55
2021/12/17 13:39:40;;;;;;;1.53;1.43;;;;;;;11.80;47.22;95330.06;5133928;27;20433;-54
2021/12/17 13:42:10;;;;;;;1.40;0.73;;;;;;;12.13;47.15;95350.53;5134014;27;20494;-55
2021/12/17 13:44:42;;;;;;;4.43;0.40;;;;;;;12.40;47.29;95392.56;5133774;27;20513;-55
2021/12/17 13:47:29;;;;;;;0.40;0.20;;;;;;;12.48;47.72;95376.03;5133859;27;20452;-55
2021/12/17 13:50:07;;;;;;;5.50;0.33;;;;;;;11.92;49.36;95373.00;5133662;27;20827;-55
2021/12/17 13:52:50;;;;;;;2.50;1.07;;;;;;;12.26;49.14;95371.16;5133433;27;20485;-54
2021/12/17 13:55:21;;;;;;;0.60;0.60;;;;;;;11.94;49.30;95366.34;5133736;27;20482;-54
2021/12/17 13:57:49;;;;;;;0.40;0.30;;;;;;;10.91;52.95;95364.69;5133362;27;20521;-54
2021/12/17 14:00:21;;;;;;;0.70;0.70;;;;;;;11.19;53.77;95378.13;5132704;27;20489;-54
2021/12/17 14:02:54;;;;;;;0.70;0.70;;;;;;;11.07;56.56;95348.47;5133277;27;20523;-55
2021/12/17 14:05:27;;;;;;;0.93;0.93;;;;;;;10.93;60.65;95376.59;5133399;27;20422;-55
2021/12/17 14:08:00;;;;;;;0.50;0.50;;;;;;;9.86;58.02;95194.28;5132050;27;20470;-55
2021/12/17 14:10:30;;;;;;;0.60;0.60;;;;;;;10.93;58.15;95366.00;5132905;27;20454;-55
2021/12/17 14:13:00;;;;;;;0.40;0.30;;;;;;;10.39;60.80;95320.00;5133227;27;20430;-55
2021/12/17 14:15:49;;;;;;;0.47;0.40;;;;;;;10.63;67.99;95366.06;5132374;27;20438;-54
2021/12/17 14:18:19;;;;;;;1.57;1.50;;;;;;;10.63;64.70;95364.22;5132928;27;20434;-55